createdAt,value
2019-03-30T00:01:01.988Z,19.10
2019-03-30T00:03:32.700Z,19.87
2019-03-30T00:06:03.010Z,19.87
2019-03-30T00:08:33.267Z,21.77
2019-03-30T00:11:04.974Z,20.07
2019-03-30T00:13:35.310Z,19.63
2019-03-30T00:16:05.606Z,21.67
2019-03-30T00:18:35.882Z,21.53
2019-03-30T00:21:06.476Z,23.70
2019-03-30T00:23:36.704Z,22.57
2019-03-30T00:26:06.942Z,24.20
2019-03-30T00:28:37.262Z,21.80
2019-03-30T00:31:07.595Z,24.40
2019-03-30T00:33:39.382Z,24.13
2019-03-30T00:36:09.610Z,25.00
2019-03-30T00:38:40.055Z,24.83
2019-03-30T00:41:10.279Z,28.33
2019-03-30T00:43:40.538Z,29.40
2019-03-30T00:46:10.757Z,25.00
2019-03-30T00:48:40.999Z,25.77
2019-03-30T00:51:11.610Z,30.00
2019-03-30T00:53:41.838Z,26.63
2019-03-30T00:56:12.072Z,29.17
2019-03-30T00:58:42.548Z,27.40
2019-03-30T01:01:12.850Z,27.83
2019-03-30T01:03:43.510Z,28.30
2019-03-30T01:06:13.810Z,27.57
2019-03-30T01:08:44.046Z,27.73
2019-03-30T01:11:14.474Z,29.63
2019-03-30T01:13:44.701Z,27.53
2019-03-30T01:16:15.011Z,28.60
2019-03-30T01:18:45.226Z,31.27
2019-03-30T01:21:15.554Z,29.00
2019-03-30T01:23:48.221Z,31.50
2019-03-30T01:26:18.516Z,30.40
2019-03-30T01:28:49.175Z,29.73
2019-03-30T01:31:20.686Z,29.07
2019-03-30T01:33:51.026Z,27.83
2019-03-30T01:36:21.401Z,32.47
2019-03-30T01:38:52.749Z,29.77
2019-03-30T01:41:23.058Z,28.57
2019-03-30T01:43:54.696Z,25.13
2019-03-30T01:46:24.928Z,27.37
2019-03-30T01:48:55.215Z,26.27
2019-03-30T01:51:25.614Z,26.37
2019-03-30T01:53:55.923Z,27.70
2019-03-30T01:56:26.246Z,29.30
2019-03-30T01:58:56.541Z,27.67
2019-03-30T02:01:26.874Z,28.03
2019-03-30T02:04:00.709Z,27.77
2019-03-30T02:06:30.960Z,25.43
2019-03-30T02:09:01.195Z,28.27
2019-03-30T02:11:32.590Z,30.33
2019-03-30T02:14:03.977Z,27.57
2019-03-30T02:16:45.754Z,28.77
2019-03-30T02:19:16.118Z,28.30
2019-03-30T02:21:46.342Z,31.50
2019-03-30T02:24:16.677Z,32.10
2019-03-30T02:26:46.910Z,32.23
2019-03-30T02:29:17.130Z,34.57
2019-03-30T02:31:47.339Z,34.57
2019-03-30T02:34:17.586Z,37.60
2019-03-30T02:36:47.804Z,33.40
2019-03-30T02:39:18.107Z,32.43
2019-03-30T02:41:48.368Z,33.90
2019-03-30T02:44:18.723Z,36.20
2019-03-30T02:46:48.945Z,32.27
2019-03-30T02:49:19.179Z,32.00
2019-03-30T02:51:49.540Z,32.20
2019-03-30T02:54:19.978Z,30.20
2019-03-30T02:56:50.232Z,25.60
2019-03-30T02:59:20.601Z,25.27
2019-03-30T03:01:50.818Z,21.27
2019-03-30T03:04:22.095Z,23.00
2019-03-30T03:06:52.321Z,19.03
2019-03-30T03:09:22.545Z,19.43
2019-03-30T03:11:52.935Z,19.93
2019-03-30T03:14:23.169Z,16.50
2019-03-30T03:16:53.384Z,18.43
2019-03-30T03:19:23.611Z,19.00
2019-03-30T03:21:53.920Z,19.33
2019-03-30T03:24:24.152Z,18.03
2019-03-30T03:26:54.383Z,17.07
2019-03-30T03:29:24.607Z,17.17
2019-03-30T03:31:56.888Z,15.50
2019-03-30T03:34:30.055Z,15.40
2019-03-30T03:37:00.635Z,16.40
2019-03-30T03:39:30.834Z,17.40
2019-03-30T03:42:02.242Z,18.30
2019-03-30T03:44:33.994Z,16.90
2019-03-30T03:47:04.319Z,19.53
2019-03-30T03:49:34.601Z,18.67
2019-03-30T03:52:05.997Z,18.13
2019-03-30T03:54:36.299Z,18.87
2019-03-30T03:57:08.989Z,16.30
2019-03-30T03:59:39.482Z,12.43
2019-03-30T04:02:13.462Z,13.90
2019-03-30T04:04:47.637Z,13.93
2019-03-30T04:07:21.170Z,12.60
2019-03-30T04:09:54.818Z,11.13
2019-03-30T04:12:25.347Z,10.37
2019-03-30T04:14:57.116Z,11.20
2019-03-30T04:17:27.462Z,10.77
2019-03-30T04:19:57.757Z,12.27
2019-03-30T04:22:28.146Z,10.03
2019-03-30T04:24:58.431Z,11.33
2019-03-30T04:27:28.651Z,9.97
2019-03-30T04:29:58.883Z,11.67
2019-03-30T04:32:31.275Z,9.97
2019-03-30T04:35:01.590Z,10.70
2019-03-30T04:37:31.852Z,12.30
2019-03-30T04:40:02.146Z,9.27
2019-03-30T04:42:33.969Z,10.87
2019-03-30T04:45:04.424Z,11.53
2019-03-30T04:47:34.660Z,11.77
2019-03-30T04:50:05.049Z,12.80
2019-03-30T04:52:35.288Z,12.83
2019-03-30T04:55:05.667Z,12.10
2019-03-30T04:57:37.850Z,9.13
2019-03-30T05:00:08.686Z,11.57
2019-03-30T05:02:38.982Z,11.20
2019-03-30T05:05:10.175Z,12.27
2019-03-30T05:07:40.469Z,11.33
2019-03-30T05:10:12.548Z,11.10
2019-03-30T05:12:42.852Z,10.67
2019-03-30T05:15:13.223Z,10.53
2019-03-30T05:17:47.668Z,12.73
2019-03-30T05:20:15.766Z,11.93
2019-03-30T05:22:46.018Z,13.37
2019-03-30T05:25:16.408Z,11.27
2019-03-30T05:27:46.708Z,13.90
2019-03-30T05:30:17.103Z,12.03
2019-03-30T05:33:04.588Z,12.87
2019-03-30T05:35:22.710Z,13.40
2019-03-30T05:37:52.964Z,10.27
2019-03-30T05:40:24.394Z,12.93
2019-03-30T05:42:54.606Z,15.60
2019-03-30T05:45:24.850Z,13.83
2019-03-30T05:47:55.155Z,12.03
2019-03-30T05:50:25.446Z,14.10
2019-03-30T05:52:56.721Z,12.47
2019-03-30T05:55:26.935Z,12.47
2019-03-30T05:57:58.201Z,14.77
2019-03-30T06:00:28.592Z,11.67
2019-03-30T06:02:58.830Z,13.27
2019-03-30T06:05:31.442Z,12.93
2019-03-30T06:08:01.710Z,11.47
2019-03-30T06:10:32.314Z,13.80
2019-03-30T06:13:02.542Z,17.77
2019-03-30T06:15:32.876Z,18.00
2019-03-30T06:18:03.174Z,19.43
2019-03-30T06:20:33.414Z,19.00
2019-03-30T06:23:03.719Z,18.93
2019-03-30T06:25:33.951Z,19.57
2019-03-30T06:28:05.411Z,21.37
2019-03-30T06:30:36.232Z,22.03
2019-03-30T06:33:06.454Z,23.10
2019-03-30T06:35:36.722Z,25.37
2019-03-30T06:38:07.075Z,26.60
2019-03-30T06:40:56.314Z,26.97
2019-03-30T06:43:31.137Z,28.17
2019-03-30T06:46:01.676Z,30.23
2019-03-30T06:48:31.934Z,31.03
2019-03-30T06:51:02.243Z,37.40
2019-03-30T06:53:33.587Z,33.73
2019-03-30T06:56:03.917Z,33.27
2019-03-30T06:58:34.154Z,31.67
2019-03-30T07:01:05.022Z,32.13
2019-03-30T07:03:35.438Z,30.73
2019-03-30T07:06:05.814Z,29.67
2019-03-30T07:08:36.901Z,29.13
2019-03-30T07:11:20.504Z,31.30
2019-03-30T07:13:41.938Z,28.63
2019-03-30T07:16:12.321Z,30.80
2019-03-30T07:18:44.278Z,29.57
2019-03-30T07:21:14.522Z,30.90
2019-03-30T07:23:45.649Z,29.00
2019-03-30T07:26:15.954Z,27.30
2019-03-30T07:28:47.328Z,28.03
2019-03-30T07:31:21.299Z,26.87
2019-03-30T07:33:51.519Z,28.03
2019-03-30T07:36:21.751Z,27.73
2019-03-30T07:38:51.984Z,25.63
2019-03-30T07:41:22.206Z,26.70
2019-03-30T07:43:53.541Z,25.77
2019-03-30T07:46:23.778Z,25.83
2019-03-30T07:48:54.084Z,25.93
2019-03-30T07:51:24.335Z,27.20
2019-03-30T07:53:54.578Z,27.77
2019-03-30T07:56:24.802Z,26.60
2019-03-30T07:58:55.125Z,25.00
2019-03-30T08:01:25.445Z,24.37
2019-03-30T08:03:55.690Z,27.93
2019-03-30T08:06:26.018Z,28.03
2019-03-30T08:08:56.282Z,28.87
2019-03-30T08:11:26.494Z,25.00
2019-03-30T08:13:56.819Z,24.27
2019-03-30T08:16:27.139Z,23.27
2019-03-30T08:18:57.519Z,24.20
2019-03-30T08:21:27.762Z,22.53
2019-03-30T08:23:57.998Z,24.87
2019-03-30T08:26:28.246Z,22.43
2019-03-30T08:28:58.470Z,24.40
2019-03-30T08:31:28.788Z,23.13
2019-03-30T08:33:59.023Z,22.30
2019-03-30T08:36:29.430Z,23.07
2019-03-30T08:38:59.662Z,22.97
2019-03-30T08:41:30.210Z,22.67
2019-03-30T08:44:00.427Z,23.47
2019-03-30T08:46:30.654Z,21.63
2019-03-30T08:49:00.869Z,23.67
2019-03-30T08:51:31.181Z,22.10
2019-03-30T08:54:01.519Z,27.03
2019-03-30T08:56:31.889Z,24.13
2019-03-30T08:59:02.226Z,23.37
2019-03-30T09:01:32.517Z,26.03
2019-03-30T09:04:02.894Z,23.30
2019-03-30T09:06:33.108Z,26.17
2019-03-30T09:09:04.897Z,26.00
2019-03-30T09:11:35.198Z,27.00
2019-03-30T09:14:05.910Z,22.77
2019-03-30T09:16:37.174Z,25.90
2019-03-30T09:19:07.405Z,25.90
2019-03-30T09:21:37.714Z,26.90
2019-03-30T09:24:10.101Z,23.80
2019-03-30T09:26:40.073Z,23.70
2019-03-30T09:29:10.324Z,27.83
2019-03-30T09:31:40.635Z,25.50
2019-03-30T09:34:10.873Z,25.37
2019-03-30T09:36:41.153Z,27.87
2019-03-30T09:39:11.482Z,27.47
2019-03-30T09:41:41.744Z,25.87
2019-03-30T09:44:11.982Z,26.77
2019-03-30T09:46:42.271Z,29.30
2019-03-30T09:49:12.590Z,27.33
2019-03-30T09:51:42.912Z,24.40
2019-03-30T09:54:23.588Z,26.20
2019-03-30T09:56:45.366Z,28.73
2019-03-30T09:59:15.607Z,27.97
2019-03-30T10:01:46.010Z,27.10
2019-03-30T10:04:16.262Z,28.07
2019-03-30T10:06:46.631Z,31.37
2019-03-30T10:09:16.854Z,29.37
2019-03-30T10:11:47.320Z,28.63
2019-03-30T10:14:17.546Z,28.07
2019-03-30T10:16:48.799Z,28.30
2019-03-30T10:19:20.285Z,27.73
2019-03-30T10:21:50.533Z,29.47
2019-03-30T10:24:20.760Z,29.17
2019-03-30T10:26:51.070Z,30.80
2019-03-30T10:29:21.382Z,29.60
2019-03-30T10:31:51.618Z,30.37
2019-03-30T10:34:21.846Z,31.23
2019-03-30T10:36:52.078Z,30.63
2019-03-30T10:39:22.322Z,31.20
2019-03-30T10:41:52.564Z,30.57
2019-03-30T10:44:22.887Z,28.63
2019-03-30T10:46:53.282Z,26.43
2019-03-30T10:49:23.625Z,22.70
2019-03-30T10:51:54.461Z,25.57
2019-03-30T10:54:24.867Z,27.43
2019-03-30T10:56:55.109Z,26.53
2019-03-30T10:59:25.342Z,23.27
2019-03-30T11:01:55.569Z,28.90
2019-03-30T11:04:25.917Z,27.93
2019-03-30T11:06:56.130Z,28.57
2019-03-30T11:09:26.383Z,29.13
2019-03-30T11:11:56.972Z,29.17
2019-03-30T11:14:27.606Z,31.53
2019-03-30T11:16:57.835Z,29.17
2019-03-30T11:19:29.462Z,30.87
2019-03-30T11:22:03.080Z,31.17
2019-03-30T11:24:32.875Z,31.23
2019-03-30T11:27:05.254Z,36.87
2019-03-30T11:29:35.517Z,35.23
2019-03-30T11:32:06.610Z,34.33
2019-03-30T11:34:37.242Z,33.07
2019-03-30T11:37:09.107Z,32.43
2019-03-30T11:39:39.414Z,31.10
2019-03-30T11:42:09.655Z,30.23
2019-03-30T11:44:39.924Z,33.93
2019-03-30T11:47:10.243Z,32.33
2019-03-30T11:49:40.599Z,31.30
2019-03-30T11:52:10.822Z,30.27
2019-03-30T11:54:41.149Z,31.83
2019-03-30T11:57:11.454Z,32.53
2019-03-30T11:59:42.410Z,33.53
2019-03-30T12:02:21.860Z,39.03
2019-03-30T12:04:44.766Z,37.77
2019-03-30T12:07:15.105Z,37.70
2019-03-30T12:09:45.450Z,37.40
2019-03-30T12:12:15.661Z,37.37
2019-03-30T12:14:45.997Z,37.80
2019-03-30T12:17:16.247Z,36.40
2019-03-30T12:19:46.693Z,39.03
2019-03-30T12:22:16.922Z,37.93
2019-03-30T12:24:47.178Z,38.37
2019-03-30T12:27:17.670Z,37.77
2019-03-30T12:29:47.942Z,38.77
2019-03-30T12:32:18.264Z,38.97
2019-03-30T12:34:48.607Z,38.17
2019-03-30T12:37:18.987Z,37.10
2019-03-30T12:39:49.228Z,37.33
2019-03-30T12:42:19.483Z,36.63
2019-03-30T12:44:49.816Z,39.33
2019-03-30T12:47:20.117Z,37.70
2019-03-30T12:49:50.427Z,36.80
2019-03-30T12:52:20.658Z,33.47
2019-03-30T12:54:50.926Z,34.90
2019-03-30T12:57:21.662Z,36.47
2019-03-30T12:59:51.998Z,39.47
2019-03-30T13:02:22.230Z,35.80
2019-03-30T13:04:52.477Z,38.23
2019-03-30T13:07:22.870Z,37.83
2019-03-30T13:09:53.118Z,37.57
2019-03-30T13:12:25.481Z,35.93
2019-03-30T13:14:55.722Z,38.03
2019-03-30T13:17:25.982Z,39.00
2019-03-30T13:19:57.169Z,34.00
2019-03-30T13:22:27.419Z,34.93
2019-03-30T13:24:57.644Z,35.43
2019-03-30T13:27:27.949Z,32.43
2019-03-30T13:29:58.368Z,34.53
2019-03-30T13:32:29.230Z,33.63
2019-03-30T13:34:59.486Z,35.90
2019-03-30T13:37:29.770Z,33.57
2019-03-30T13:40:00.419Z,34.90
2019-03-30T13:42:31.135Z,35.40
2019-03-30T13:45:03.885Z,37.17
2019-03-30T13:47:34.158Z,35.63
2019-03-30T13:50:05.158Z,36.10
2019-03-30T13:52:35.734Z,36.50
2019-03-30T13:55:07.467Z,40.30
2019-03-30T13:57:37.799Z,37.43
2019-03-30T14:00:09.124Z,38.30
2019-03-30T14:02:39.381Z,35.43
2019-03-30T14:05:09.933Z,33.63
2019-03-30T14:07:40.294Z,33.00
2019-03-30T14:10:10.962Z,33.77
2019-03-30T14:12:41.286Z,38.47
2019-03-30T14:15:11.696Z,35.97
2019-03-30T14:17:41.947Z,37.13
2019-03-30T14:20:12.526Z,35.60
2019-03-30T14:22:43.606Z,31.97
2019-03-30T14:25:13.905Z,34.53
2019-03-30T14:27:44.191Z,35.07
2019-03-30T14:30:14.703Z,33.13
2019-03-30T14:32:45.011Z,36.70
2019-03-30T14:35:15.266Z,32.97
2019-03-30T14:37:45.658Z,33.53
2019-03-30T14:40:15.985Z,30.30
2019-03-30T14:42:47.214Z,33.30
2019-03-30T14:45:17.597Z,31.87
2019-03-30T14:47:47.830Z,27.87
2019-03-30T14:50:18.210Z,29.20
2019-03-30T14:52:48.447Z,27.50
2019-03-30T14:55:18.684Z,25.87
2019-03-30T14:57:50.226Z,25.27
2019-03-30T15:00:20.680Z,25.10
2019-03-30T15:02:51.142Z,23.13
2019-03-30T15:05:21.523Z,23.60
2019-03-30T15:07:51.745Z,19.63
2019-03-30T15:10:22.090Z,18.30
2019-03-30T15:12:52.340Z,18.00
2019-03-30T15:15:22.559Z,17.77
2019-03-30T15:17:52.804Z,22.03
2019-03-30T15:20:25.726Z,19.87
2019-03-30T15:22:58.474Z,22.67
2019-03-30T15:25:28.785Z,19.37
2019-03-30T15:27:59.018Z,21.83
2019-03-30T15:30:29.254Z,20.73
2019-03-30T15:33:03.083Z,22.37
2019-03-30T15:35:31.489Z,20.73
2019-03-30T15:38:01.807Z,21.63
2019-03-30T15:40:32.030Z,23.03
2019-03-30T15:43:03.550Z,22.43
2019-03-30T15:45:34.102Z,26.07
2019-03-30T15:48:04.838Z,22.77
2019-03-30T15:50:35.192Z,26.90
2019-03-30T15:53:07.110Z,23.80
2019-03-30T15:55:38.238Z,23.47
2019-03-30T15:58:08.611Z,23.10
2019-03-30T16:00:39.002Z,24.30
2019-03-30T16:03:09.368Z,25.23
2019-03-30T16:05:41.171Z,27.17
2019-03-30T16:08:12.842Z,25.83
2019-03-30T16:10:43.199Z,23.90
2019-03-30T16:13:14.738Z,21.47
2019-03-30T16:15:45.092Z,22.73
2019-03-30T16:18:15.491Z,23.97
2019-03-30T16:20:45.850Z,24.37
2019-03-30T16:23:16.711Z,24.87
2019-03-30T16:25:47.146Z,25.20
2019-03-30T16:28:17.383Z,23.07
2019-03-30T16:30:49.438Z,23.70
2019-03-30T16:33:20.579Z,23.23
2019-03-30T16:35:50.827Z,24.17
2019-03-30T16:38:21.071Z,22.73
2019-03-30T16:40:51.303Z,23.97
2019-03-30T16:43:21.527Z,24.33
2019-03-30T16:45:51.828Z,22.93
2019-03-30T16:48:23.030Z,24.50
2019-03-30T16:50:53.304Z,24.37
2019-03-30T16:53:23.541Z,22.70
2019-03-30T16:55:53.755Z,23.33
2019-03-30T16:58:24.078Z,24.07
2019-03-30T17:00:56.668Z,24.73
2019-03-30T17:03:26.405Z,24.80
2019-03-30T17:05:56.683Z,22.93
2019-03-30T17:08:26.943Z,24.33
2019-03-30T17:10:57.463Z,25.53
2019-03-30T17:13:27.742Z,24.23
2019-03-30T17:15:58.691Z,23.37
2019-03-30T17:18:29.077Z,20.67
2019-03-30T17:20:59.335Z,18.97
2019-03-30T17:23:29.567Z,17.27
2019-03-30T17:26:00.006Z,19.70
2019-03-30T17:28:30.310Z,20.43
2019-03-30T17:31:00.628Z,19.73
2019-03-30T17:33:30.978Z,21.20
2019-03-30T17:36:01.277Z,22.07
2019-03-30T17:38:31.490Z,25.03
2019-03-30T17:41:01.736Z,25.97
2019-03-30T17:43:32.017Z,24.80
2019-03-30T17:46:02.310Z,28.17
2019-03-30T17:48:32.671Z,26.77
2019-03-30T17:51:02.979Z,29.37
2019-03-30T17:53:33.345Z,29.07
2019-03-30T17:56:04.794Z,28.00
2019-03-30T17:58:35.044Z,29.07
2019-03-30T18:01:05.425Z,27.57
2019-03-30T18:03:35.678Z,30.77
2019-03-30T18:06:05.972Z,28.53
2019-03-30T18:08:36.271Z,30.67
2019-03-30T18:11:06.643Z,28.23
2019-03-30T18:13:37.058Z,31.23
2019-03-30T18:16:07.478Z,28.50
2019-03-30T18:18:38.894Z,29.90
2019-03-30T18:21:09.177Z,29.17
2019-03-30T18:23:39.526Z,28.07
2019-03-30T18:26:10.266Z,29.17
2019-03-30T18:28:40.657Z,29.63
2019-03-30T18:31:11.061Z,34.07
2019-03-30T18:33:41.297Z,32.50
2019-03-30T18:36:12.906Z,33.10
2019-03-30T18:38:44.002Z,30.90
2019-03-30T18:41:14.445Z,33.03
2019-03-30T18:43:44.781Z,32.27
2019-03-30T18:46:17.242Z,34.23
2019-03-30T18:48:56.506Z,29.70
2019-03-30T18:51:27.894Z,33.20
2019-03-30T18:53:58.215Z,34.50
2019-03-30T18:56:28.478Z,32.87
2019-03-30T18:58:58.716Z,36.40
2019-03-30T19:01:29.018Z,35.03
2019-03-30T19:03:59.355Z,32.73
2019-03-30T19:06:29.707Z,33.53
2019-03-30T19:09:00.013Z,35.43
2019-03-30T19:11:30.293Z,36.73
2019-03-30T19:14:00.550Z,35.50
2019-03-30T19:16:30.877Z,34.53
2019-03-30T19:19:01.286Z,39.47
2019-03-30T19:21:31.518Z,39.27
2019-03-30T19:24:01.824Z,38.13
2019-03-30T19:26:32.410Z,38.47
2019-03-30T19:29:02.796Z,36.80
2019-03-30T19:31:33.031Z,39.07
2019-03-30T19:34:03.359Z,41.83
2019-03-30T19:36:33.575Z,39.07
2019-03-30T19:39:05.394Z,40.77
2019-03-30T19:41:35.627Z,41.57
2019-03-30T19:44:05.951Z,41.57
2019-03-30T19:46:36.254Z,41.20
2019-03-30T19:49:06.502Z,43.20
2019-03-30T19:51:36.791Z,40.70
2019-03-30T19:54:07.023Z,42.03
2019-03-30T19:56:37.318Z,42.57
2019-03-30T19:59:10.853Z,43.77
2019-03-30T20:01:39.605Z,43.27
2019-03-30T20:04:10.851Z,42.07
2019-03-30T20:06:41.094Z,42.63
2019-03-30T20:09:11.470Z,43.97
2019-03-30T20:11:41.795Z,42.70
2019-03-30T20:14:12.043Z,50.07
2019-03-30T20:16:42.538Z,42.63
2019-03-30T20:19:13.678Z,42.10
2019-03-30T20:21:44.756Z,45.47
2019-03-30T20:24:15.748Z,44.40
2019-03-30T20:26:45.978Z,42.50
2019-03-30T20:29:25.252Z,45.83
2019-03-30T20:31:48.287Z,42.90
2019-03-30T20:34:18.592Z,43.43
2019-03-30T20:36:48.900Z,44.50
2019-03-30T20:39:20.202Z,42.50
2019-03-30T20:41:50.418Z,46.10
2019-03-30T20:44:21.510Z,45.13
2019-03-30T20:46:51.818Z,43.33
2019-03-30T20:49:22.239Z,44.63
2019-03-30T20:51:52.466Z,44.70
2019-03-30T20:54:23.246Z,46.23
2019-03-30T20:56:53.494Z,46.07
2019-03-30T20:59:23.742Z,49.73
2019-03-30T21:01:53.990Z,43.40
2019-03-30T21:04:26.671Z,46.23
2019-03-30T21:06:56.911Z,47.73
2019-03-30T21:09:27.135Z,46.23
2019-03-30T21:11:57.378Z,48.03
2019-03-30T21:14:33.168Z,48.67
2019-03-30T21:17:03.455Z,47.37
2019-03-30T21:19:34.091Z,44.70
2019-03-30T21:22:04.523Z,44.83
2019-03-30T21:24:37.277Z,49.50
2019-03-30T21:27:07.587Z,48.37
2019-03-30T21:29:37.872Z,45.63
2019-03-30T21:32:08.169Z,46.30
2019-03-30T21:34:38.398Z,46.47
2019-03-30T21:37:08.687Z,46.77
2019-03-30T21:39:38.922Z,49.10
2019-03-30T21:42:09.233Z,48.00
2019-03-30T21:44:39.545Z,48.30
2019-03-30T21:47:10.934Z,48.30
2019-03-30T21:49:41.174Z,47.37
2019-03-30T21:52:11.404Z,48.77
2019-03-30T21:54:42.884Z,45.63
2019-03-30T21:57:13.379Z,42.47
2019-03-30T21:59:43.656Z,47.70
2019-03-30T22:02:15.139Z,49.63
2019-03-30T22:04:45.353Z,49.57
2019-03-30T22:07:16.490Z,48.73
2019-03-30T22:09:46.952Z,47.30
2019-03-30T22:12:17.183Z,48.13
2019-03-30T22:14:49.718Z,46.87
2019-03-30T22:17:20.378Z,46.67
2019-03-30T22:19:50.620Z,46.20
2019-03-30T22:22:20.898Z,45.97
2019-03-30T22:24:51.142Z,49.30
2019-03-30T22:27:21.370Z,43.03
2019-03-30T22:29:53.742Z,46.03
2019-03-30T22:32:23.979Z,42.33
2019-03-30T22:34:54.278Z,46.80
2019-03-30T22:37:24.506Z,41.70
2019-03-30T22:39:54.733Z,43.93
2019-03-30T22:42:24.988Z,44.63
2019-03-30T22:44:56.086Z,43.03
2019-03-30T22:47:26.319Z,44.93
2019-03-30T22:49:56.538Z,45.97
2019-03-30T22:52:26.894Z,45.07
2019-03-30T22:54:57.261Z,42.93
2019-03-30T22:57:28.402Z,46.07
2019-03-30T22:59:58.637Z,47.70
2019-03-30T23:02:28.961Z,45.23
2019-03-30T23:04:59.622Z,48.83
2019-03-30T23:07:29.847Z,46.70
2019-03-30T23:10:00.363Z,49.77
2019-03-30T23:12:30.751Z,46.93
2019-03-30T23:15:00.975Z,48.23
2019-03-30T23:17:31.286Z,45.90
2019-03-30T23:20:01.578Z,46.13
2019-03-30T23:22:31.810Z,44.23
2019-03-30T23:25:02.071Z,47.17
2019-03-30T23:27:33.373Z,40.87
2019-03-30T23:30:03.791Z,45.93
2019-03-30T23:32:34.223Z,46.60
2019-03-30T23:35:06.167Z,42.40
2019-03-30T23:37:36.680Z,43.77
2019-03-30T23:40:07.951Z,44.47
2019-03-30T23:42:39.346Z,40.03
2019-03-30T23:45:09.722Z,44.90
2019-03-30T23:47:40.046Z,38.70
2019-03-30T23:50:10.336Z,41.13
2019-03-30T23:52:40.658Z,38.20
2019-03-30T23:55:11.082Z,40.07
2019-03-30T23:57:41.309Z,37.27
